createdAt,value
2017-03-10T00:00:15.162Z,1011.17
2017-03-10T00:00:55.797Z,1011.17
2017-03-10T00:01:36.436Z,1011.14
2017-03-10T00:02:17.088Z,1011.14
2017-03-10T00:02:57.733Z,1011.13
2017-03-10T00:03:38.374Z,1011.11
2017-03-10T00:04:19.028Z,1011.12
2017-03-10T00:04:59.683Z,1011.08
2017-03-10T00:05:40.366Z,1011.08
2017-03-10T00:06:21.019Z,1011.07
2017-03-10T00:07:01.660Z,1011.07
2017-03-10T00:07:42.293Z,1011.07
2017-03-10T00:08:22.962Z,1011.06
2017-03-10T00:09:03.596Z,1011.07
2017-03-10T00:09:44.246Z,1011.03
2017-03-10T00:10:24.896Z,1011
2017-03-10T00:11:05.532Z,1011.02
2017-03-10T00:11:46.187Z,1011.04
2017-03-10T00:12:26.852Z,1011.04
2017-03-10T00:13:07.498Z,1011.06
2017-03-10T00:13:48.135Z,1011.02
2017-03-10T00:14:28.921Z,1011.02
2017-03-10T00:15:09.570Z,1011
2017-03-10T00:15:50.216Z,1010.98
2017-03-10T00:16:30.939Z,1010.97
2017-03-10T00:17:11.568Z,1010.98
2017-03-10T00:17:52.194Z,1010.93
2017-03-10T00:18:32.843Z,1010.97
2017-03-10T00:19:13.602Z,1010.94
2017-03-10T00:19:54.265Z,1010.92
2017-03-10T00:20:34.862Z,1010.91
2017-03-10T00:21:15.496Z,1010.93
2017-03-10T00:21:56.154Z,1010.94
2017-03-10T00:22:36.787Z,1010.93
2017-03-10T00:23:17.440Z,1010.89
2017-03-10T00:23:58.233Z,1010.93
2017-03-10T00:24:38.868Z,1010.91
2017-03-10T00:25:19.576Z,1010.93
2017-03-10T00:26:00.234Z,1010.94
2017-03-10T00:26:40.867Z,1010.92
2017-03-10T00:27:21.606Z,1010.89
2017-03-10T00:28:02.235Z,1010.91
2017-03-10T00:28:42.871Z,1010.9
2017-03-10T00:29:23.619Z,1010.92
2017-03-10T00:30:04.249Z,1010.91
2017-03-10T00:30:44.953Z,1010.9
2017-03-10T00:31:25.599Z,1010.89
2017-03-10T00:32:06.342Z,1010.91
2017-03-10T00:32:47.012Z,1010.9
2017-03-10T00:33:27.654Z,1010.92
2017-03-10T00:34:08.300Z,1010.91
2017-03-10T00:34:48.961Z,1010.9
2017-03-10T00:35:29.606Z,1010.91
2017-03-10T00:36:10.251Z,1010.91
2017-03-10T00:36:50.943Z,1010.91
2017-03-10T00:37:31.582Z,1010.91
2017-03-10T00:38:12.234Z,1010.86
2017-03-10T00:38:52.981Z,1010.9
2017-03-10T00:39:33.606Z,1010.87
2017-03-10T00:40:14.281Z,1010.84
2017-03-10T00:40:54.926Z,1010.83
2017-03-10T00:41:35.582Z,1010.82
2017-03-10T00:42:16.214Z,1010.86
2017-03-10T00:42:56.860Z,1010.86
2017-03-10T00:43:37.497Z,1010.85
2017-03-10T00:44:18.189Z,1010.84
2017-03-10T00:44:58.827Z,1010.88
2017-03-10T00:45:39.469Z,1010.84
2017-03-10T00:46:20.100Z,1010.85
2017-03-10T00:47:00.730Z,1010.85
2017-03-10T00:47:41.368Z,1010.85
2017-03-10T00:48:21.994Z,1010.89
2017-03-10T00:49:02.655Z,1010.87
2017-03-10T00:49:43.295Z,1010.86
2017-03-10T00:50:23.927Z,1010.86
2017-03-10T00:51:04.583Z,1010.88
2017-03-10T00:51:45.246Z,1010.88
2017-03-10T00:52:25.870Z,1010.89
2017-03-10T00:53:06.594Z,1010.87
2017-03-10T00:53:47.296Z,1010.88
2017-03-10T00:54:27.949Z,1010.88
2017-03-10T00:55:08.585Z,1010.84
2017-03-10T00:55:49.230Z,1010.85
2017-03-10T00:56:29.873Z,1010.85
2017-03-10T00:57:10.503Z,1010.84
2017-03-10T00:57:51.133Z,1010.84
2017-03-10T00:58:31.799Z,1010.81
2017-03-10T00:59:12.448Z,1010.81
2017-03-10T00:59:53.089Z,1010.8
2017-03-10T01:00:33.724Z,1010.81
2017-03-10T01:01:14.355Z,1010.83
2017-03-10T01:01:54.993Z,1010.84
2017-03-10T01:02:35.640Z,1010.81
2017-03-10T01:03:16.283Z,1010.8
2017-03-10T01:03:56.905Z,1010.81
2017-03-10T01:04:37.578Z,1010.8
2017-03-10T01:05:18.242Z,1010.81
2017-03-10T01:05:58.895Z,1010.85
2017-03-10T01:06:39.633Z,1010.83
2017-03-10T01:07:20.270Z,1010.78
2017-03-10T01:08:00.922Z,1010.79
2017-03-10T01:08:41.558Z,1010.8
2017-03-10T01:09:22.193Z,1010.8
2017-03-10T01:10:02.895Z,1010.83
2017-03-10T01:10:43.542Z,1010.83
2017-03-10T01:11:24.164Z,1010.79
2017-03-10T01:12:04.809Z,1010.81
2017-03-10T01:12:45.439Z,1010.78
2017-03-10T01:13:26.098Z,1010.76
2017-03-10T01:14:06.730Z,1010.8
2017-03-10T01:14:47.360Z,1010.79
2017-03-10T01:15:27.988Z,1010.78
2017-03-10T01:16:08.640Z,1010.77
2017-03-10T01:16:49.312Z,1010.76
2017-03-10T01:17:29.947Z,1010.79
2017-03-10T01:18:10.594Z,1010.79
2017-03-10T01:18:51.213Z,1010.75
2017-03-10T01:19:31.850Z,1010.77
2017-03-10T01:20:12.471Z,1010.76
2017-03-10T01:20:53.095Z,1010.79
2017-03-10T01:21:33.722Z,1010.78
2017-03-10T01:22:14.374Z,1010.79
2017-03-10T01:22:55.011Z,1010.82
2017-03-10T01:23:35.632Z,1010.81
2017-03-10T01:24:16.274Z,1010.78
2017-03-10T01:24:56.904Z,1010.81
2017-03-10T01:25:37.544Z,1010.8
2017-03-10T01:26:18.183Z,1010.79
2017-03-10T01:26:58.820Z,1010.79
2017-03-10T01:27:39.450Z,1010.76
2017-03-10T01:28:20.077Z,1010.81
2017-03-10T01:29:00.719Z,1010.79
2017-03-10T01:29:41.349Z,1010.77
2017-03-10T01:30:21.985Z,1010.74
2017-03-10T01:31:02.612Z,1010.75
2017-03-10T01:31:43.236Z,1010.77
2017-03-10T01:32:23.988Z,1010.74
2017-03-10T01:33:04.641Z,1010.76
2017-03-10T01:33:45.270Z,1010.76
2017-03-10T01:34:25.917Z,1010.75
2017-03-10T01:35:06.603Z,1010.75
2017-03-10T01:35:47.234Z,1010.73
2017-03-10T01:36:27.886Z,1010.74
2017-03-10T01:37:08.516Z,1010.71
2017-03-10T01:37:49.152Z,1010.72
2017-03-10T01:38:29.790Z,1010.7
2017-03-10T01:39:10.417Z,1010.72
2017-03-10T01:39:51.107Z,1010.72
2017-03-10T01:40:31.730Z,1010.71
2017-03-10T01:41:12.376Z,1010.73
2017-03-10T01:41:53.039Z,1010.7
2017-03-10T01:42:33.689Z,1010.71
2017-03-10T01:43:14.337Z,1010.71
2017-03-10T01:43:54.985Z,1010.74
2017-03-10T01:44:35.617Z,1010.72
2017-03-10T01:45:16.270Z,1010.72
2017-03-10T01:45:56.905Z,1010.7
2017-03-10T01:46:37.533Z,1010.67
2017-03-10T01:47:18.155Z,1010.68
2017-03-10T01:47:58.804Z,1010.68
2017-03-10T01:48:39.471Z,1010.67
2017-03-10T01:49:20.189Z,1010.63
2017-03-10T01:50:00.842Z,1010.65
2017-03-10T01:50:41.484Z,1010.62
2017-03-10T01:51:22.153Z,1010.61
2017-03-10T01:52:02.797Z,1010.6
2017-03-10T01:52:43.452Z,1010.63
2017-03-10T01:53:24.156Z,1010.62
2017-03-10T01:54:04.796Z,1010.62
2017-03-10T01:54:45.492Z,1010.6
2017-03-10T01:55:26.144Z,1010.58
2017-03-10T01:56:06.777Z,1010.61
2017-03-10T01:56:47.423Z,1010.59
2017-03-10T01:57:28.057Z,1010.56
2017-03-10T01:58:08.683Z,1010.57
2017-03-10T01:58:49.303Z,1010.54
2017-03-10T01:59:29.945Z,1010.56
2017-03-10T02:00:10.604Z,1010.57
2017-03-10T02:00:51.239Z,1010.6
2017-03-10T02:01:31.875Z,1010.56
2017-03-10T02:02:13.096Z,1010.56
2017-03-10T02:02:53.722Z,1010.55
2017-03-10T02:03:34.467Z,1010.52
2017-03-10T02:04:15.089Z,1010.56
2017-03-10T02:04:55.727Z,1010.52
2017-03-10T02:05:36.374Z,1010.51
2017-03-10T02:06:17.010Z,1010.51
2017-03-10T02:06:57.663Z,1010.51
2017-03-10T02:07:38.288Z,1010.46
2017-03-10T02:08:18.938Z,1010.52
2017-03-10T02:08:59.595Z,1010.48
2017-03-10T02:09:40.253Z,1010.45
2017-03-10T02:10:20.893Z,1010.44
2017-03-10T02:11:01.519Z,1010.44
2017-03-10T02:11:42.242Z,1010.4
2017-03-10T02:12:22.877Z,1010.43
2017-03-10T02:13:03.511Z,1010.4
2017-03-10T02:13:44.228Z,1010.37
2017-03-10T02:14:24.857Z,1010.39
2017-03-10T02:15:05.481Z,1010.38
2017-03-10T02:15:46.196Z,1010.37
2017-03-10T02:16:26.822Z,1010.36
2017-03-10T02:17:07.478Z,1010.31
2017-03-10T02:17:48.166Z,1010.34
2017-03-10T02:18:28.818Z,1010.34
2017-03-10T02:19:09.437Z,1010.31
2017-03-10T02:19:50.071Z,1010.31
2017-03-10T02:20:30.709Z,1010.3
2017-03-10T02:21:11.369Z,1010.33
2017-03-10T02:21:52.022Z,1010.3
2017-03-10T02:22:32.652Z,1010.28
2017-03-10T02:23:13.330Z,1010.32
2017-03-10T02:23:53.978Z,1010.28
2017-03-10T02:24:34.611Z,1010.26
2017-03-10T02:25:15.315Z,1010.26
2017-03-10T02:25:55.959Z,1010.23
2017-03-10T02:26:36.611Z,1010.23
2017-03-10T02:27:17.241Z,1010.27
2017-03-10T02:27:57.890Z,1010.25
2017-03-10T02:28:38.527Z,1010.27
2017-03-10T02:29:19.250Z,1010.24
2017-03-10T02:29:59.875Z,1010.22
2017-03-10T02:30:40.496Z,1010.23
2017-03-10T02:31:21.123Z,1010.23
2017-03-10T02:32:01.769Z,1010.22
2017-03-10T02:32:42.411Z,1010.17
2017-03-10T02:33:23.050Z,1010.17
2017-03-10T02:34:03.684Z,1010.18
2017-03-10T02:34:44.329Z,1010.17
2017-03-10T02:35:25.026Z,1010.19
2017-03-10T02:36:05.657Z,1010.17
2017-03-10T02:36:46.311Z,1010.15
2017-03-10T02:37:26.937Z,1010.12
2017-03-10T02:38:07.569Z,1010.13
2017-03-10T02:38:48.249Z,1010.14
2017-03-10T02:39:28.920Z,1010.13
2017-03-10T02:40:09.556Z,1010.09
2017-03-10T02:40:50.183Z,1010.08
2017-03-10T02:41:30.831Z,1010.08
2017-03-10T02:42:11.536Z,1010.08
2017-03-10T02:42:52.107Z,1010.05
2017-03-10T02:43:32.735Z,1010.04
2017-03-10T02:44:13.375Z,1010.03
2017-03-10T02:44:54.001Z,1010.06
2017-03-10T02:45:34.749Z,1010.03
2017-03-10T02:46:15.383Z,1010.04
2017-03-10T02:46:56.007Z,1010.04
2017-03-10T02:47:36.638Z,1010.05
2017-03-10T02:48:17.273Z,1010
2017-03-10T02:48:57.904Z,1010
2017-03-10T02:49:38.595Z,1010.01
2017-03-10T02:50:19.229Z,1010
2017-03-10T02:50:59.870Z,1010
2017-03-10T02:51:40.555Z,1009.98
2017-03-10T02:52:21.203Z,1009.95
2017-03-10T02:53:01.821Z,1009.92
2017-03-10T02:53:42.448Z,1009.92
2017-03-10T02:54:23.825Z,1009.92
2017-03-10T02:55:04.478Z,1009.92
2017-03-10T02:55:45.176Z,1009.91
2017-03-10T02:56:25.802Z,1009.93
2017-03-10T02:57:06.437Z,1009.92
2017-03-10T02:57:47.067Z,1009.95
2017-03-10T02:58:27.698Z,1009.89
2017-03-10T02:59:08.331Z,1009.93
2017-03-10T02:59:49.029Z,1009.87
2017-03-10T03:00:29.711Z,1009.89
2017-03-10T03:01:10.352Z,1009.9
2017-03-10T03:01:50.968Z,1009.91
2017-03-10T03:02:31.611Z,1009.9
2017-03-10T03:03:12.256Z,1009.9
2017-03-10T03:03:52.921Z,1009.91
2017-03-10T03:04:33.556Z,1009.92
2017-03-10T03:05:14.183Z,1009.95
2017-03-10T03:05:54.890Z,1009.93
2017-03-10T03:06:35.510Z,1009.92
2017-03-10T03:07:16.160Z,1009.94
2017-03-10T03:07:56.793Z,1009.9
2017-03-10T03:08:37.414Z,1009.89
2017-03-10T03:09:18.046Z,1009.92
2017-03-10T03:09:58.687Z,1009.89
2017-03-10T03:10:39.336Z,1009.9
2017-03-10T03:11:20.007Z,1009.87
2017-03-10T03:12:00.662Z,1009.87
2017-03-10T03:12:41.311Z,1009.89
2017-03-10T03:13:21.945Z,1009.89
2017-03-10T03:14:02.584Z,1009.89
2017-03-10T03:14:43.224Z,1009.88
2017-03-10T03:15:23.863Z,1009.88
2017-03-10T03:16:04.495Z,1009.86
2017-03-10T03:16:45.200Z,1009.87
2017-03-10T03:17:25.840Z,1009.88
2017-03-10T03:18:06.452Z,1009.88
2017-03-10T03:18:47.090Z,1009.87
2017-03-10T03:19:27.721Z,1009.86
2017-03-10T03:20:08.360Z,1009.84
2017-03-10T03:20:48.991Z,1009.83
2017-03-10T03:21:29.671Z,1009.8
2017-03-10T03:22:10.345Z,1009.84
2017-03-10T03:22:50.984Z,1009.86
2017-03-10T03:23:31.604Z,1009.86
2017-03-10T03:24:12.231Z,1009.86
2017-03-10T03:24:52.867Z,1009.81
2017-03-10T03:25:33.493Z,1009.83
2017-03-10T03:26:14.172Z,1009.83
2017-03-10T03:26:54.805Z,1009.76
2017-03-10T03:27:35.440Z,1009.81
2017-03-10T03:28:16.066Z,1009.81
2017-03-10T03:28:56.696Z,1009.81
2017-03-10T03:29:37.336Z,1009.78
2017-03-10T03:30:18.005Z,1009.79
2017-03-10T03:30:58.633Z,1009.78
2017-03-10T03:31:39.261Z,1009.82
2017-03-10T03:32:19.961Z,1009.81
2017-03-10T03:33:00.594Z,1009.8
2017-03-10T03:33:41.219Z,1009.83
2017-03-10T03:34:21.919Z,1009.78
2017-03-10T03:35:02.545Z,1009.76
2017-03-10T03:35:43.167Z,1009.79
2017-03-10T03:36:23.805Z,1009.76
2017-03-10T03:37:04.434Z,1009.8
2017-03-10T03:37:45.066Z,1009.83
2017-03-10T03:38:25.820Z,1009.81
2017-03-10T03:39:06.445Z,1009.83
2017-03-10T03:39:47.085Z,1009.82
2017-03-10T03:40:27.712Z,1009.81
2017-03-10T03:41:08.349Z,1009.84
2017-03-10T03:41:48.989Z,1009.83
2017-03-10T03:42:29.624Z,1009.88
2017-03-10T03:43:10.256Z,1009.84
2017-03-10T03:43:50.876Z,1009.84
2017-03-10T03:44:31.509Z,1009.82
2017-03-10T03:45:12.176Z,1009.82
2017-03-10T03:45:52.817Z,1009.81
2017-03-10T03:46:33.475Z,1009.83
2017-03-10T03:47:14.108Z,1009.81
2017-03-10T03:47:54.731Z,1009.76
2017-03-10T03:48:35.383Z,1009.81
2017-03-10T03:49:16.028Z,1009.79
2017-03-10T03:49:56.654Z,1009.78
2017-03-10T03:50:37.297Z,1009.77
2017-03-10T03:51:17.942Z,1009.76
2017-03-10T03:51:58.595Z,1009.75
2017-03-10T03:52:39.212Z,1009.74
2017-03-10T03:53:19.847Z,1009.68
2017-03-10T03:54:00.486Z,1009.71
2017-03-10T03:54:41.124Z,1009.72
2017-03-10T03:55:21.754Z,1009.7
2017-03-10T03:56:02.380Z,1009.66
2017-03-10T03:56:43.014Z,1009.65
2017-03-10T03:57:23.685Z,1009.67
2017-03-10T03:58:04.319Z,1009.63
2017-03-10T03:58:45.015Z,1009.65
2017-03-10T03:59:25.657Z,1009.58
2017-03-10T04:00:06.282Z,1009.6
2017-03-10T04:00:46.925Z,1009.6
2017-03-10T04:01:27.633Z,1009.62
2017-03-10T04:02:08.360Z,1009.65
2017-03-10T04:02:48.990Z,1009.64
2017-03-10T04:03:29.637Z,1009.62
2017-03-10T04:04:10.259Z,1009.59
2017-03-10T04:04:50.890Z,1009.57
2017-03-10T04:05:31.523Z,1009.6
2017-03-10T04:06:12.150Z,1009.56
2017-03-10T04:06:52.776Z,1009.56
2017-03-10T04:07:33.402Z,1009.58
2017-03-10T04:08:14.049Z,1009.56
2017-03-10T04:08:54.702Z,1009.55
2017-03-10T04:09:35.338Z,1009.57
2017-03-10T04:10:15.967Z,1009.58
2017-03-10T04:10:56.646Z,1009.54
2017-03-10T04:11:37.300Z,1009.53
2017-03-10T04:12:17.941Z,1009.52
2017-03-10T04:12:58.590Z,1009.52
2017-03-10T04:13:39.228Z,1009.53
2017-03-10T04:14:19.852Z,1009.53
2017-03-10T04:15:00.478Z,1009.54
2017-03-10T04:15:41.165Z,1009.53
2017-03-10T04:16:21.794Z,1009.54
2017-03-10T04:17:02.444Z,1009.53
2017-03-10T04:17:43.139Z,1009.49
2017-03-10T04:18:23.774Z,1009.49
2017-03-10T04:19:04.403Z,1009.52
2017-03-10T04:19:45.088Z,1009.55
2017-03-10T04:20:25.737Z,1009.53
2017-03-10T04:21:06.362Z,1009.54
2017-03-10T04:21:47.139Z,1009.57
2017-03-10T04:22:27.776Z,1009.56
2017-03-10T04:23:08.407Z,1009.59
2017-03-10T04:23:49.052Z,1009.55
2017-03-10T04:24:29.691Z,1009.59
2017-03-10T04:25:10.311Z,1009.6
2017-03-10T04:25:50.953Z,1009.57
2017-03-10T04:26:31.616Z,1009.56
2017-03-10T04:27:12.268Z,1009.58
2017-03-10T04:27:52.897Z,1009.62
2017-03-10T04:28:33.528Z,1009.65
2017-03-10T04:29:14.190Z,1009.65
2017-03-10T04:29:54.852Z,1009.59
2017-03-10T04:30:35.496Z,1009.6
2017-03-10T04:31:16.140Z,1009.63
2017-03-10T04:31:56.864Z,1009.61
2017-03-10T04:32:37.567Z,1009.58
2017-03-10T04:33:18.201Z,1009.62
2017-03-10T04:33:58.824Z,1009.65
2017-03-10T04:34:39.479Z,1009.57
2017-03-10T04:35:20.158Z,1009.51
2017-03-10T04:36:00.810Z,1009.53
2017-03-10T04:36:41.515Z,1009.55
2017-03-10T04:37:22.211Z,1009.54
2017-03-10T04:38:02.842Z,1009.52
2017-03-10T04:38:43.506Z,1009.55
2017-03-10T04:39:24.159Z,1009.58
2017-03-10T04:40:04.829Z,1009.59
2017-03-10T04:40:45.460Z,1009.62
2017-03-10T04:41:26.107Z,1009.63
2017-03-10T04:42:06.732Z,1009.65
2017-03-10T04:42:47.361Z,1009.63
2017-03-10T04:43:28.008Z,1009.66
2017-03-10T04:44:08.653Z,1009.65
2017-03-10T04:44:49.319Z,1009.64
2017-03-10T04:45:29.957Z,1009.69
2017-03-10T04:46:10.586Z,1009.63
2017-03-10T04:46:51.228Z,1009.62
2017-03-10T04:47:31.853Z,1009.62
2017-03-10T04:48:12.491Z,1009.61
2017-03-10T04:48:53.121Z,1009.61
2017-03-10T04:49:33.777Z,1009.59
2017-03-10T04:50:14.419Z,1009.53
2017-03-10T04:50:55.051Z,1009.55
2017-03-10T04:51:35.698Z,1009.53
2017-03-10T04:52:16.342Z,1009.56
2017-03-10T04:52:56.979Z,1009.54
2017-03-10T04:53:37.613Z,1009.52
2017-03-10T04:54:18.239Z,1009.56
2017-03-10T04:54:58.880Z,1009.52
2017-03-10T04:55:39.563Z,1009.47
2017-03-10T04:56:20.299Z,1009.48
2017-03-10T04:57:00.928Z,1009.58
2017-03-10T04:57:41.558Z,1009.59
2017-03-10T04:58:22.241Z,1009.58
2017-03-10T04:59:02.888Z,1009.58
2017-03-10T04:59:43.527Z,1009.63
2017-03-10T05:00:24.157Z,1009.63
2017-03-10T05:01:04.785Z,1009.63
2017-03-10T05:01:45.428Z,1009.65
2017-03-10T05:02:26.070Z,1009.64
2017-03-10T05:03:06.706Z,1009.63
2017-03-10T05:03:47.339Z,1009.65
2017-03-10T05:04:27.977Z,1009.67
2017-03-10T05:05:08.605Z,1009.67
2017-03-10T05:05:49.242Z,1009.65
2017-03-10T05:06:29.880Z,1009.65
2017-03-10T05:07:10.533Z,1009.64
2017-03-10T05:07:51.145Z,1009.63
2017-03-10T05:08:31.768Z,1009.64
2017-03-10T05:09:12.409Z,1009.63
2017-03-10T05:09:53.176Z,1009.63
2017-03-10T05:10:33.809Z,1009.6
2017-03-10T05:11:14.441Z,1009.65
2017-03-10T05:11:55.077Z,1009.6
2017-03-10T05:12:35.707Z,1009.59
2017-03-10T05:13:16.341Z,1009.65
2017-03-10T05:13:57.035Z,1009.64
2017-03-10T05:14:37.686Z,1009.69
2017-03-10T05:15:18.361Z,1009.63
2017-03-10T05:15:58.992Z,1009.62
2017-03-10T05:16:39.637Z,1009.62
2017-03-10T05:17:20.308Z,1009.63
2017-03-10T05:18:00.941Z,1009.64
2017-03-10T05:18:41.680Z,1009.61
2017-03-10T05:19:22.316Z,1009.61
2017-03-10T05:20:02.958Z,1009.6
2017-03-10T05:20:43.579Z,1009.56
2017-03-10T05:21:24.219Z,1009.61
2017-03-10T05:22:04.857Z,1009.58
2017-03-10T05:22:45.483Z,1009.61
2017-03-10T05:23:26.128Z,1009.6
2017-03-10T05:24:06.773Z,1009.62
2017-03-10T05:24:47.415Z,1009.6
2017-03-10T05:25:28.090Z,1009.61
2017-03-10T05:26:08.763Z,1009.61
2017-03-10T05:26:49.388Z,1009.6
2017-03-10T05:27:30.055Z,1009.61
2017-03-10T05:28:10.702Z,1009.61
2017-03-10T05:28:51.332Z,1009.62
2017-03-10T05:29:31.964Z,1009.64
2017-03-10T05:30:12.612Z,1009.6
2017-03-10T05:30:53.312Z,1009.66
2017-03-10T05:31:34.029Z,1009.63
2017-03-10T05:32:14.654Z,1009.64
2017-03-10T05:32:55.290Z,1009.62
2017-03-10T05:33:35.917Z,1009.64
2017-03-10T05:34:16.555Z,1009.64
2017-03-10T05:34:57.226Z,1009.63
2017-03-10T05:35:37.850Z,1009.65
2017-03-10T05:36:18.498Z,1009.62
2017-03-10T05:36:59.110Z,1009.65
2017-03-10T05:37:39.770Z,1009.64
2017-03-10T05:38:20.396Z,1009.65
2017-03-10T05:39:01.041Z,1009.66
2017-03-10T05:39:41.674Z,1009.69
2017-03-10T05:40:22.311Z,1009.7
2017-03-10T05:41:02.965Z,1009.72
2017-03-10T05:41:43.612Z,1009.69
2017-03-10T05:42:24.243Z,1009.72
2017-03-10T05:43:04.873Z,1009.73
2017-03-10T05:43:45.512Z,1009.72
2017-03-10T05:44:26.133Z,1009.73
2017-03-10T05:45:06.749Z,1009.72
2017-03-10T05:45:47.378Z,1009.73
2017-03-10T05:46:28.037Z,1009.74
2017-03-10T05:47:08.669Z,1009.76
2017-03-10T05:47:49.325Z,1009.73
2017-03-10T05:48:29.962Z,1009.73
2017-03-10T05:49:10.585Z,1009.73
2017-03-10T05:49:51.268Z,1009.71
2017-03-10T05:50:31.902Z,1009.75
2017-03-10T05:51:12.531Z,1009.76
2017-03-10T05:51:53.154Z,1009.72
2017-03-10T05:52:33.806Z,1009.73
2017-03-10T05:53:14.460Z,1009.73
2017-03-10T05:53:55.117Z,1009.73
2017-03-10T05:54:35.748Z,1009.74
2017-03-10T05:55:16.382Z,1009.71
2017-03-10T05:55:57.032Z,1009.71
2017-03-10T05:56:37.676Z,1009.73
2017-03-10T05:57:18.332Z,1009.73
2017-03-10T05:57:58.970Z,1009.69
2017-03-10T05:58:39.599Z,1009.69
2017-03-10T05:59:20.238Z,1009.72
2017-03-10T06:00:00.865Z,1009.72
2017-03-10T06:00:41.521Z,1009.7
2017-03-10T06:01:22.163Z,1009.74
2017-03-10T06:02:02.830Z,1009.7
2017-03-10T06:02:43.451Z,1009.72
2017-03-10T06:03:24.070Z,1009.71
2017-03-10T06:04:04.703Z,1009.69
2017-03-10T06:04:45.354Z,1009.72
2017-03-10T06:05:25.993Z,1009.71
2017-03-10T06:06:06.621Z,1009.68
2017-03-10T06:06:47.254Z,1009.7
2017-03-10T06:07:27.890Z,1009.7
2017-03-10T06:08:08.519Z,1009.72
2017-03-10T06:08:49.155Z,1009.7
2017-03-10T06:09:29.784Z,1009.69
2017-03-10T06:10:10.427Z,1009.71
2017-03-10T06:10:51.067Z,1009.71
2017-03-10T06:11:31.714Z,1009.71
2017-03-10T06:12:12.342Z,1009.72
2017-03-10T06:12:53.056Z,1009.73
2017-03-10T06:13:33.696Z,1009.73
2017-03-10T06:14:14.347Z,1009.71
2017-03-10T06:14:54.972Z,1009.73
2017-03-10T06:15:35.604Z,1009.75
2017-03-10T06:16:16.260Z,1009.69
2017-03-10T06:16:56.907Z,1009.67
2017-03-10T06:17:37.551Z,1009.68
2017-03-10T06:18:18.174Z,1009.69
2017-03-10T06:18:58.826Z,1009.71
2017-03-10T06:19:39.461Z,1009.71
2017-03-10T06:20:20.097Z,1009.7
2017-03-10T06:21:00.726Z,1009.67
2017-03-10T06:21:41.372Z,1009.68
2017-03-10T06:22:21.998Z,1009.68
2017-03-10T06:23:02.636Z,1009.63
2017-03-10T06:23:43.294Z,1009.62
2017-03-10T06:24:23.947Z,1009.63
2017-03-10T06:25:04.584Z,1009.63
2017-03-10T06:25:45.222Z,1009.63
2017-03-10T06:26:25.842Z,1009.65
2017-03-10T06:27:06.494Z,1009.62
2017-03-10T06:27:47.155Z,1009.65
2017-03-10T06:28:27.804Z,1009.63
2017-03-10T06:29:08.462Z,1009.64
2017-03-10T06:29:49.115Z,1009.65
2017-03-10T06:30:29.797Z,1009.65
2017-03-10T06:31:10.437Z,1009.68
2017-03-10T06:31:51.061Z,1009.66
2017-03-10T06:32:31.761Z,1009.66
2017-03-10T06:33:12.407Z,1009.65
2017-03-10T06:33:53.042Z,1009.64
2017-03-10T06:34:33.738Z,1009.65
2017-03-10T06:35:14.378Z,1009.65
2017-03-10T06:35:55.091Z,1009.66
2017-03-10T06:36:35.746Z,1009.67
2017-03-10T06:37:16.394Z,1009.67
2017-03-10T06:37:57.068Z,1009.69
2017-03-10T06:38:37.706Z,1009.7
2017-03-10T06:39:18.335Z,1009.7
2017-03-10T06:39:58.992Z,1009.73
2017-03-10T06:40:39.621Z,1009.72
2017-03-10T06:41:20.254Z,1009.72
2017-03-10T06:42:00.881Z,1009.68
2017-03-10T06:42:41.519Z,1009.66
2017-03-10T06:43:22.147Z,1009.7
2017-03-10T06:44:02.785Z,1009.69
2017-03-10T06:44:43.417Z,1009.68
2017-03-10T06:45:24.051Z,1009.7
2017-03-10T06:46:04.680Z,1009.71
2017-03-10T06:46:45.302Z,1009.72
2017-03-10T06:47:25.956Z,1009.73
2017-03-10T06:48:06.605Z,1009.76
2017-03-10T06:48:47.225Z,1009.76
2017-03-10T06:49:27.840Z,1009.76
2017-03-10T06:50:08.466Z,1009.83
2017-03-10T06:50:49.082Z,1009.81
2017-03-10T06:51:29.720Z,1009.8
2017-03-10T06:52:10.356Z,1009.75
2017-03-10T06:52:51.007Z,1009.77
2017-03-10T06:53:31.637Z,1009.8
2017-03-10T06:54:12.316Z,1009.78
2017-03-10T06:54:52.969Z,1009.75
2017-03-10T06:55:33.589Z,1009.82
2017-03-10T06:56:14.230Z,1009.78
2017-03-10T06:56:54.857Z,1009.74
2017-03-10T06:57:35.491Z,1009.75
2017-03-10T06:58:16.130Z,1009.74
2017-03-10T06:58:56.764Z,1009.77
2017-03-10T06:59:37.463Z,1009.75
2017-03-10T07:00:18.100Z,1009.75
2017-03-10T07:00:58.727Z,1009.81
2017-03-10T07:01:39.363Z,1009.73
2017-03-10T07:02:19.998Z,1009.77
2017-03-10T07:03:00.641Z,1009.78
2017-03-10T07:03:41.314Z,1009.75
2017-03-10T07:04:21.939Z,1009.78
2017-03-10T07:05:02.598Z,1009.74
2017-03-10T07:05:43.263Z,1009.77
2017-03-10T07:06:23.904Z,1009.78
2017-03-10T07:07:04.538Z,1009.73
2017-03-10T07:07:45.170Z,1009.79
2017-03-10T07:08:25.806Z,1009.81
2017-03-10T07:09:06.426Z,1009.8
2017-03-10T07:09:47.156Z,1009.82
2017-03-10T07:10:27.799Z,1009.81
2017-03-10T07:11:08.431Z,1009.79
2017-03-10T07:11:49.068Z,1009.8
2017-03-10T07:12:29.692Z,1009.8
2017-03-10T07:13:10.333Z,1009.8
2017-03-10T07:13:51.015Z,1009.81
2017-03-10T07:14:31.650Z,1009.84
2017-03-10T07:15:12.292Z,1009.84
2017-03-10T07:15:52.916Z,1009.88
2017-03-10T07:16:33.549Z,1009.89
2017-03-10T07:17:14.203Z,1009.85
2017-03-10T07:17:54.953Z,1009.87
2017-03-10T07:18:35.577Z,1009.89
2017-03-10T07:19:16.294Z,1009.92
2017-03-10T07:19:56.879Z,1009.93
2017-03-10T07:20:37.517Z,1009.94
2017-03-10T07:21:18.203Z,1009.96
2017-03-10T07:21:58.778Z,1009.98
2017-03-10T07:22:39.430Z,1009.96
2017-03-10T07:23:20.138Z,1009.99
2017-03-10T07:24:00.780Z,1010.01
2017-03-10T07:24:41.414Z,1010.01
2017-03-10T07:25:22.069Z,1010
2017-03-10T07:26:02.719Z,1010.02
2017-03-10T07:26:43.348Z,1010.03
2017-03-10T07:27:23.984Z,1010.01
2017-03-10T07:28:04.616Z,1010.03
2017-03-10T07:28:45.285Z,1010.01
2017-03-10T07:29:25.934Z,1010.02
2017-03-10T07:30:06.589Z,1010.05
2017-03-10T07:30:47.320Z,1010.04
2017-03-10T07:31:27.963Z,1010.06
2017-03-10T07:32:08.595Z,1010.08
2017-03-10T07:32:49.246Z,1010.1
2017-03-10T07:33:30.624Z,1010.08
2017-03-10T07:34:11.251Z,1010.09
2017-03-10T07:34:51.914Z,1010.06
2017-03-10T07:35:32.555Z,1010.08
2017-03-10T07:36:13.197Z,1010.08
2017-03-10T07:36:53.867Z,1010.04
2017-03-10T07:37:34.496Z,1010.09
2017-03-10T07:38:15.145Z,1010.1
2017-03-10T07:38:55.823Z,1010.09
2017-03-10T07:39:36.451Z,1010.08
2017-03-10T07:40:17.098Z,1010.07
2017-03-10T07:40:57.780Z,1010.11
2017-03-10T07:41:38.422Z,1010.13
2017-03-10T07:42:19.067Z,1010.14
2017-03-10T07:42:59.707Z,1010.11
2017-03-10T07:43:40.346Z,1010.15
2017-03-10T07:44:20.968Z,1010.13
2017-03-10T07:45:01.613Z,1010.12
2017-03-10T07:45:42.249Z,1010.16
2017-03-10T07:46:22.895Z,1010.17
2017-03-10T07:47:03.660Z,1010.19
2017-03-10T07:47:44.293Z,1010.17
2017-03-10T07:48:24.949Z,1010.18
2017-03-10T07:49:05.579Z,1010.25
2017-03-10T07:49:46.255Z,1010.24
2017-03-10T07:50:26.885Z,1010.23
2017-03-10T07:51:07.524Z,1010.29
2017-03-10T07:51:48.167Z,1010.28
2017-03-10T07:52:28.806Z,1010.32
2017-03-10T07:53:09.556Z,1010.31
2017-03-10T07:53:50.220Z,1010.31
2017-03-10T07:54:30.868Z,1010.35
2017-03-10T07:55:11.499Z,1010.37
2017-03-10T07:55:52.150Z,1010.36
2017-03-10T07:56:32.783Z,1010.38
2017-03-10T07:57:13.414Z,1010.39
2017-03-10T07:57:54.047Z,1010.44
2017-03-10T07:58:34.682Z,1010.46
2017-03-10T07:59:15.308Z,1010.49
2017-03-10T07:59:55.954Z,1010.51
2017-03-10T08:00:36.574Z,1010.49
2017-03-10T08:01:17.223Z,1010.52
2017-03-10T08:01:57.874Z,1010.49
2017-03-10T08:02:38.561Z,1010.48
2017-03-10T08:03:19.206Z,1010.47
2017-03-10T08:03:59.833Z,1010.47
2017-03-10T08:04:40.486Z,1010.45
2017-03-10T08:05:21.134Z,1010.45
2017-03-10T08:06:01.863Z,1010.46
2017-03-10T08:06:42.542Z,1010.47
2017-03-10T08:07:23.247Z,1010.47
2017-03-10T08:08:03.908Z,1010.47
2017-03-10T08:08:44.560Z,1010.47
2017-03-10T08:09:25.193Z,1010.48
2017-03-10T08:10:05.848Z,1010.47
2017-03-10T08:10:46.521Z,1010.47
2017-03-10T08:11:27.151Z,1010.48
2017-03-10T08:12:07.843Z,1010.47
2017-03-10T08:12:48.496Z,1010.44
2017-03-10T08:13:29.147Z,1010.46